• Join FlightAware (Why Join?)
  • Login
  • US Flag 
03:53AM EDT


 

Airport Tracker/Info


-or-


 

Live Flight TrackerFlight Track Log ✈ N560WW ✈ 17-Jul-2013 ✈ KPPA - KMAF

Flight Track Log - Related Links

Times and Time Zones

All times are in EDT time to prevent confusion due to time zone crossing. See the N560WW flight status page for this flight to view local times or setup timezone preferences in your user account.

Time Position Orientation Groundspeed Altitude Reporting Facility
EDT Latitude Longitude Course Direction KTS MPH feet Rate Location/Type
02:13PM 35.4917 -101.1317 226° Southwest 222 255 12,200  Level Albuquerque Center
02:14PM 35.4333 -101.1528 196° South 217 250 15,400 2,340 Climbing Albuquerque Center
02:15PM 35.3569 -101.1767 194° South 256 295 17,000 1,560 Climbing Albuquerque Center
02:16PM 35.2714 -101.2039 195° South 296 341 18,700 1,800 Climbing Albuquerque Center
02:17PM 35.0834 -101.1682 193° South  Level FlightAware Approximate
02:17PM 35.1839 -101.2314 194° South 312 359 20,800  Level Albuquerque Center
02:18PM 35.0939 -101.2592 194° South 322 371 22,500 1,800 Climbing Albuquerque Center
02:19PM 34.9858 -101.2925 194° South 330 380 24,600 1,620 Climbing Albuquerque Center
02:20PM 34.8928 -101.3206 194° South 338 389 25,900 660 Climbing Albuquerque Center
02:21PM 34.7925 -101.3514 194° South 360 414 26,000  Climbing Albuquerque Center
02:22PM 34.6856 -101.3858 195° South 389 448 26,000  Level Albuquerque Center
02:23PM 34.5778 -101.4214 195° South 400 460 26,000  Level Albuquerque Center
02:24PM 34.4692 -101.4544 194° South 400 460 26,000  Level Albuquerque Center
02:26PM 34.3403 -101.4956 195° South 395 455 26,000  Level Fort Worth Center
02:27PM 34.2267 -101.5303 194° South 390 449 26,000  Level Fort Worth Center
02:28PM 34.1147 -101.5675 195° South 384 442 26,000  Level Fort Worth Center
02:29PM 34.0242 -101.5958 195° South 384 442 26,000  Level Fort Worth Center
02:30PM 33.9103 -101.6281 193° South 384 442 26,000  Level Fort Worth Center
02:31PM 33.8194 -101.6586 196° South 384 442 26,000  Level Fort Worth Center
02:32PM 33.7222 -101.7011 200° South 384 442 26,000  Level Fort Worth Center
02:33PM 33.6208 -101.7336 195° South 384 442 26,000  Level Fort Worth Center
02:34PM 33.5236 -101.7711 198° South 384 442 26,000  Level Fort Worth Center
02:35PM 33.4136 -101.8081 196° South 384 442 26,000  Level Fort Worth Center
02:36PM 33.3144 -101.8453 197° South 378 435 26,000  Level Fort Worth Center
02:37PM 33.2169 -101.8803 197° South 378 435 26,000  Level Fort Worth Center
02:38PM 33.1178 -101.9175 197° South 378 435 26,000  Level Fort Worth Center
02:39PM 33.0206 -101.9522 197° South 378 435 26,000  Level Fort Worth Center
02:40PM 32.9317 -101.9797 195° South 373 429 26,000  Level Fort Worth Center
02:41PM 32.8325 -102.0094 194° South 368 423 26,000  Level Fort Worth Center
02:42PM 32.7350 -102.0486 199° South 368 423 26,000  Level Fort Worth Center
02:43PM 32.6378 -102.0856 198° South 368 423 26,000 -900 Level Fort Worth Center
02:44PM 32.5361 -102.1247 198° South 373 429 24,200 -2,640 Descending Fort Worth Center
02:45PM 32.4281 -102.1658 198° South 378 435 20,800 -3,480 Descending Fort Worth Center
02:46PM 32.3367 -102.2103 202° Southwest 372 428 17,300 -3,720 Descending Fort Worth Center
02:47PM 32.2553 -102.2672 211° Southwest 353 406 13,500 -3,720 Descending Fort Worth Center
02:48PM 32.1800 -102.3222 212° Southwest 342 394 9,900 -3,180 Descending Fort Worth Center
02:49PM 32.1156 -102.3678 211° Southwest 310 357 7,200 -2,340 Descending Fort Worth Center
02:50PM 32.0531 -102.4158 213° Southwest 282 325 5,300 -1,140 Descending Fort Worth Center
02:51PM 32.0086 -102.3792 145° Southeast 192 221 5,000 -120 Descending Fort Worth Center
02:52PM 31.9839 -102.3189 116° Southeast 172 198 5,100 -300 Climbing Fort Worth Center
02:53PM 31.9647 -102.2714 115° Southeast 166 191 4,500 -900 Descending Fort Worth Center
02:54PM 31.9536 -102.2364 111° Southeast 144 166 3,300 -780 Descending Fort Worth Center
02:55PM 31.9383 -102.2039 119° Southeast 134 154 3,000 5,340 Descending Fort Worth Center
02:56PM 31.9231 -102.1664 116° Southeast 134 154 14,000 10,980 Climbing Fort Worth Center